This is the latest recevied weather packets stored in our database for station/object KG7BDA. If no packets are shown the sender has not sent any weather packets the latest 10 day(s).
| Time | Temp. | Humidity | Pressure | Rain* | Wind** | Luminosity | Snow |
|---|---|---|---|---|---|---|---|
| 1777615390 | 9.44° C | 70% | 1020.1 hPa | 0 mm | - | - | - |
| 1777615029 | 8.89° C | 72% | 1019.9 hPa | 0 mm | - | - | - |
| 1777614670 | 8.33° C | 71% | 1020 hPa | 0 mm | - | - | - |
| 1777614342 | 8.89° C | 68% | 1019.9 hPa | 0 mm | - | - | - |
| 1777614310 | 8.89° C | 68% | 1019.9 hPa | 0 mm | - | - | - |
| 1777613950 | 9.44° C | 66% | 1019.9 hPa | 0 mm | - | - | - |
| 1777613590 | 10.56° C | 62% | 1019.7 hPa | 0 mm | - | - | - |
| 1777613230 | 11.67° C | 58% | 1019.9 hPa | 0 mm | - | - | - |
| 1777612869 | 11.67° C | 59% | 1019.8 hPa | 0 mm | - | - | - |
| 1777612510 | 10.56° C | 63% | 1019.9 hPa | 0 mm | - | - | - |
| 1777612150 | 10.56° C | 64% | 1019.9 hPa | 0 mm | - | - | - |
| 1777611789 | 10° C | 65% | 1019.9 hPa | 0 mm | - | - | - |
| 1777611430 | 12.22° C | 54% | 1019.7 hPa | 0 mm | - | - | - |
| 1777611069 | 15° C | 45% | 1019.5 hPa | 0 mm | - | - | - |
| 1777610710 | 15° C | 45% | 1019.5 hPa | 0 mm | - | - | - |
| 1777610350 | 15° C | 45% | 1019.5 hPa | 0 mm | - | - | - |
| 1777609990 | 14.44° C | 46% | 1019.4 hPa | 0 mm | - | - | - |
| 1777609630 | 14.44° C | 46% | 1019.4 hPa | 0 mm | - | - | - |
| 1777609269 | 13.89° C | 47% | 1019.3 hPa | 0 mm | - | - | - |
| 1777608909 | 13.89° C | 48% | 1019.2 hPa | 0 mm | - | - | - |
| 1777608550 | 13.89° C | 49% | 1019.1 hPa | 0 mm | - | - | - |
| 1777608189 | 13.89° C | 49% | 1019 hPa | 0 mm | - | - | - |
| 1777607829 | 13.89° C | 48% | 1019 hPa | 0 mm | - | - | - |
| 1777607109 | 13.89° C | 49% | 1018.8 hPa | 0 mm | - | - | - |
| 1777606750 | 14.44° C | 47% | 1018.8 hPa | 0 mm | - | - | - |
* Rain latest hour (hover to see other rain measurements)
** Current wind speed in m/s (hover to see current wind gust speed)